sensor_id;sensor_type;location;lat;lon;timestamp;P1;durP1;ratioP1;P2;durP2;ratioP2
75520;SDS011;64102;48.628;9.002;2024-02-28T00:01:37;18.83;;;4.38;;
75520;SDS011;64102;48.628;9.002;2024-02-28T00:04:02;18.55;;;5.10;;
75520;SDS011;64102;48.628;9.002;2024-02-28T00:06:28;19.15;;;5.55;;
75520;SDS011;64102;48.628;9.002;2024-02-28T00:08:53;19.43;;;4.77;;
75520;SDS011;64102;48.628;9.002;2024-02-28T00:11:19;20.40;;;5.10;;
75520;SDS011;64102;48.628;9.002;2024-02-28T00:13:45;20.17;;;4.53;;
75520;SDS011;64102;48.628;9.002;2024-02-28T00:16:11;18.75;;;4.65;;
75520;SDS011;64102;48.628;9.002;2024-02-28T00:18:36;20.33;;;5.15;;
75520;SDS011;64102;48.628;9.002;2024-02-28T00:21:02;19.45;;;5.65;;
75520;SDS011;64102;48.628;9.002;2024-02-28T00:23:28;18.95;;;5.45;;
75520;SDS011;64102;48.628;9.002;2024-02-28T00:25:54;18.30;;;4.63;;
75520;SDS011;64102;48.628;9.002;2024-02-28T00:28:19;19.83;;;4.63;;
75520;SDS011;64102;48.628;9.002;2024-02-28T00:30:44;21.77;;;5.03;;
75520;SDS011;64102;48.628;9.002;2024-02-28T00:33:10;18.90;;;5.38;;
75520;SDS011;64102;48.628;9.002;2024-02-28T00:35:35;18.40;;;4.77;;
75520;SDS011;64102;48.628;9.002;2024-02-28T00:38:01;19.05;;;4.80;;
75520;SDS011;64102;48.628;9.002;2024-02-28T00:40:26;20.60;;;5.65;;
75520;SDS011;64102;48.628;9.002;2024-02-28T00:42:52;21.58;;;5.65;;
75520;SDS011;64102;48.628;9.002;2024-02-28T00:45:17;19.47;;;5.30;;
75520;SDS011;64102;48.628;9.002;2024-02-28T00:47:42;22.33;;;5.07;;
75520;SDS011;64102;48.628;9.002;2024-02-28T00:50:08;18.85;;;5.10;;
75520;SDS011;64102;48.628;9.002;2024-02-28T00:52:34;22.05;;;5.70;;
75520;SDS011;64102;48.628;9.002;2024-02-28T00:54:59;19.57;;;5.37;;
75520;SDS011;64102;48.628;9.002;2024-02-28T00:57:25;21.98;;;5.13;;
75520;SDS011;64102;48.628;9.002;2024-02-28T00:59:50;16.10;;;4.53;;
75520;SDS011;64102;48.628;9.002;2024-02-28T01:02:15;22.25;;;5.28;;
75520;SDS011;64102;48.628;9.002;2024-02-28T01:04:41;20.42;;;5.32;;
75520;SDS011;64102;48.628;9.002;2024-02-28T01:07:07;25.48;;;6.38;;
75520;SDS011;64102;48.628;9.002;2024-02-28T01:09:32;21.27;;;5.00;;
75520;SDS011;64102;48.628;9.002;2024-02-28T01:11:58;22.48;;;5.65;;
75520;SDS011;64102;48.628;9.002;2024-02-28T01:14:23;21.02;;;5.55;;
75520;SDS011;64102;48.628;9.002;2024-02-28T01:16:49;24.35;;;6.05;;
75520;SDS011;64102;48.628;9.002;2024-02-28T01:19:15;19.43;;;5.37;;
75520;SDS011;64102;48.628;9.002;2024-02-28T01:21:41;21.42;;;5.32;;
75520;SDS011;64102;48.628;9.002;2024-02-28T01:24:06;20.70;;;5.85;;
75520;SDS011;64102;48.628;9.002;2024-02-28T01:26:32;22.00;;;6.00;;
75520;SDS011;64102;48.628;9.002;2024-02-28T01:28:57;19.93;;;5.43;;
75520;SDS011;64102;48.628;9.002;2024-02-28T01:31:22;22.20;;;6.50;;
75520;SDS011;64102;48.628;9.002;2024-02-28T01:33:48;23.30;;;5.43;;
75520;SDS011;64102;48.628;9.002;2024-02-28T01:36:13;19.07;;;5.63;;
75520;SDS011;64102;48.628;9.002;2024-02-28T01:38:39;20.75;;;5.65;;
75520;SDS011;64102;48.628;9.002;2024-02-28T01:41:04;19.87;;;5.63;;
75520;SDS011;64102;48.628;9.002;2024-02-28T01:43:30;20.55;;;5.10;;
75520;SDS011;64102;48.628;9.002;2024-02-28T01:45:56;21.85;;;6.10;;
75520;SDS011;64102;48.628;9.002;2024-02-28T01:48:25;22.13;;;6.03;;
75520;SDS011;64102;48.628;9.002;2024-02-28T01:50:50;23.93;;;6.07;;
75520;SDS011;64102;48.628;9.002;2024-02-28T01:53:15;22.93;;;6.10;;
75520;SDS011;64102;48.628;9.002;2024-02-28T01:55:41;20.75;;;5.43;;
75520;SDS011;64102;48.628;9.002;2024-02-28T01:58:07;18.98;;;5.32;;
75520;SDS011;64102;48.628;9.002;2024-02-28T02:00:33;20.73;;;5.60;;
75520;SDS011;64102;48.628;9.002;2024-02-28T02:03:00;24.73;;;5.95;;
75520;SDS011;64102;48.628;9.002;2024-02-28T02:05:25;21.92;;;5.78;;
75520;SDS011;64102;48.628;9.002;2024-02-28T02:07:51;21.60;;;5.53;;
75520;SDS011;64102;48.628;9.002;2024-02-28T02:10:16;21.63;;;5.50;;
75520;SDS011;64102;48.628;9.002;2024-02-28T02:12:42;24.45;;;5.47;;
75520;SDS011;64102;48.628;9.002;2024-02-28T02:15:07;20.65;;;5.20;;
75520;SDS011;64102;48.628;9.002;2024-02-28T02:17:33;22.25;;;5.68;;
75520;SDS011;64102;48.628;9.002;2024-02-28T02:19:58;22.43;;;5.53;;
75520;SDS011;64102;48.628;9.002;2024-02-28T02:22:24;20.90;;;5.65;;
75520;SDS011;64102;48.628;9.002;2024-02-28T02:24:54;18.23;;;5.43;;
75520;SDS011;64102;48.628;9.002;2024-02-28T02:27:20;20.73;;;6.03;;
75520;SDS011;64102;48.628;9.002;2024-02-28T02:29:45;21.67;;;6.18;;
75520;SDS011;64102;48.628;9.002;2024-02-28T02:32:11;22.60;;;6.03;;
75520;SDS011;64102;48.628;9.002;2024-02-28T02:34:36;19.97;;;5.60;;
75520;SDS011;64102;48.628;9.002;2024-02-28T02:37:01;19.83;;;5.40;;
75520;SDS011;64102;48.628;9.002;2024-02-28T02:39:27;23.23;;;5.75;;
75520;SDS011;64102;48.628;9.002;2024-02-28T02:41:52;21.90;;;6.33;;
75520;SDS011;64102;48.628;9.002;2024-02-28T02:44:17;21.67;;;6.03;;
75520;SDS011;64102;48.628;9.002;2024-02-28T02:46:43;21.58;;;6.75;;
75520;SDS011;64102;48.628;9.002;2024-02-28T02:49:08;22.63;;;6.60;;
75520;SDS011;64102;48.628;9.002;2024-02-28T02:51:33;22.33;;;6.57;;
75520;SDS011;64102;48.628;9.002;2024-02-28T02:53:59;21.53;;;5.43;;
75520;SDS011;64102;48.628;9.002;2024-02-28T02:56:24;19.85;;;5.05;;
75520;SDS011;64102;48.628;9.002;2024-02-28T02:58:50;20.02;;;5.72;;
75520;SDS011;64102;48.628;9.002;2024-02-28T03:01:15;21.63;;;6.10;;
75520;SDS011;64102;48.628;9.002;2024-02-28T03:03:40;21.40;;;5.37;;
75520;SDS011;64102;48.628;9.002;2024-02-28T03:06:06;21.25;;;5.97;;
75520;SDS011;64102;48.628;9.002;2024-02-28T03:08:31;22.67;;;5.85;;
75520;SDS011;64102;48.628;9.002;2024-02-28T03:10:57;23.40;;;5.87;;
75520;SDS011;64102;48.628;9.002;2024-02-28T03:13:23;20.27;;;5.78;;
75520;SDS011;64102;48.628;9.002;2024-02-28T03:15:48;21.57;;;5.30;;
75520;SDS011;64102;48.628;9.002;2024-02-28T03:18:13;23.17;;;6.73;;
75520;SDS011;64102;48.628;9.002;2024-02-28T03:20:39;21.83;;;6.00;;
75520;SDS011;64102;48.628;9.002;2024-02-28T03:23:04;23.35;;;6.07;;
75520;SDS011;64102;48.628;9.002;2024-02-28T03:25:31;18.52;;;4.88;;
75520;SDS011;64102;48.628;9.002;2024-02-28T03:27:57;21.25;;;5.60;;
75520;SDS011;64102;48.628;9.002;2024-02-28T03:30:24;23.15;;;5.55;;
75520;SDS011;64102;48.628;9.002;2024-02-28T03:32:49;21.87;;;5.00;;
75520;SDS011;64102;48.628;9.002;2024-02-28T03:35:15;19.40;;;5.37;;
75520;SDS011;64102;48.628;9.002;2024-02-28T03:37:40;22.83;;;5.43;;
75520;SDS011;64102;48.628;9.002;2024-02-28T03:40:05;21.30;;;5.27;;
75520;SDS011;64102;48.628;9.002;2024-02-28T03:42:32;19.55;;;4.93;;
75520;SDS011;64102;48.628;9.002;2024-02-28T03:44:57;20.33;;;6.20;;
75520;SDS011;64102;48.628;9.002;2024-02-28T03:47:22;22.13;;;5.53;;
75520;SDS011;64102;48.628;9.002;2024-02-28T03:49:47;20.40;;;5.53;;
75520;SDS011;64102;48.628;9.002;2024-02-28T03:52:13;23.33;;;6.20;;
75520;SDS011;64102;48.628;9.002;2024-02-28T03:54:41;20.70;;;4.93;;
75520;SDS011;64102;48.628;9.002;2024-02-28T03:57:08;20.02;;;5.43;;
75520;SDS011;64102;48.628;9.002;2024-02-28T03:59:33;23.43;;;5.73;;
75520;SDS011;64102;48.628;9.002;2024-02-28T04:01:58;18.97;;;5.17;;
75520;SDS011;64102;48.628;9.002;2024-02-28T04:04:24;22.20;;;6.22;;
75520;SDS011;64102;48.628;9.002;2024-02-28T04:06:49;22.77;;;5.90;;
75520;SDS011;64102;48.628;9.002;2024-02-28T04:09:14;20.90;;;5.97;;
75520;SDS011;64102;48.628;9.002;2024-02-28T04:11:40;18.58;;;4.95;;
75520;SDS011;64102;48.628;9.002;2024-02-28T04:14:06;20.15;;;5.22;;
75520;SDS011;64102;48.628;9.002;2024-02-28T04:16:32;18.77;;;5.15;;
75520;SDS011;64102;48.628;9.002;2024-02-28T04:18:57;18.97;;;5.07;;
75520;SDS011;64102;48.628;9.002;2024-02-28T04:21:23;20.60;;;4.85;;
75520;SDS011;64102;48.628;9.002;2024-02-28T04:23:48;19.05;;;5.20;;
75520;SDS011;64102;48.628;9.002;2024-02-28T04:26:13;18.77;;;5.30;;
75520;SDS011;64102;48.628;9.002;2024-02-28T04:28:39;18.30;;;5.32;;
75520;SDS011;64102;48.628;9.002;2024-02-28T04:31:06;18.38;;;4.47;;
75520;SDS011;64102;48.628;9.002;2024-02-28T04:33:32;17.38;;;4.60;;
75520;SDS011;64102;48.628;9.002;2024-02-28T04:35:58;19.05;;;5.00;;
75520;SDS011;64102;48.628;9.002;2024-02-28T04:38:23;20.13;;;5.05;;
75520;SDS011;64102;48.628;9.002;2024-02-28T04:40:48;18.30;;;4.87;;
75520;SDS011;64102;48.628;9.002;2024-02-28T04:43:14;22.60;;;5.13;;
75520;SDS011;64102;48.628;9.002;2024-02-28T04:45:40;19.30;;;5.03;;
75520;SDS011;64102;48.628;9.002;2024-02-28T04:48:05;18.40;;;5.40;;
75520;SDS011;64102;48.628;9.002;2024-02-28T04:50:31;22.73;;;5.68;;
75520;SDS011;64102;48.628;9.002;2024-02-28T04:52:56;19.00;;;5.15;;
75520;SDS011;64102;48.628;9.002;2024-02-28T04:55:22;20.23;;;5.30;;
75520;SDS011;64102;48.628;9.002;2024-02-28T04:57:47;23.73;;;5.70;;
75520;SDS011;64102;48.628;9.002;2024-02-28T05:00:12;17.93;;;4.67;;
75520;SDS011;64102;48.628;9.002;2024-02-28T05:02:38;21.63;;;5.35;;
75520;SDS011;64102;48.628;9.002;2024-02-28T05:05:03;22.33;;;5.77;;
75520;SDS011;64102;48.628;9.002;2024-02-28T05:07:29;22.05;;;4.85;;
75520;SDS011;64102;48.628;9.002;2024-02-28T05:09:54;24.43;;;5.93;;
75520;SDS011;64102;48.628;9.002;2024-02-28T05:12:20;20.77;;;4.83;;
75520;SDS011;64102;48.628;9.002;2024-02-28T05:14:45;24.00;;;6.73;;
75520;SDS011;64102;48.628;9.002;2024-02-28T05:17:10;20.73;;;5.00;;
75520;SDS011;64102;48.628;9.002;2024-02-28T05:19:36;22.08;;;5.32;;
75520;SDS011;64102;48.628;9.002;2024-02-28T05:22:01;23.63;;;6.57;;
75520;SDS011;64102;48.628;9.002;2024-02-28T05:24:27;20.42;;;5.68;;
75520;SDS011;64102;48.628;9.002;2024-02-28T05:26:53;23.10;;;6.40;;
75520;SDS011;64102;48.628;9.002;2024-02-28T05:29:18;21.57;;;6.23;;
75520;SDS011;64102;48.628;9.002;2024-02-28T05:31:43;25.20;;;6.27;;
75520;SDS011;64102;48.628;9.002;2024-02-28T05:34:09;23.40;;;5.90;;
75520;SDS011;64102;48.628;9.002;2024-02-28T05:36:34;20.10;;;4.63;;
75520;SDS011;64102;48.628;9.002;2024-02-28T05:39:00;22.90;;;5.75;;
75520;SDS011;64102;48.628;9.002;2024-02-28T05:41:27;23.38;;;6.25;;
75520;SDS011;64102;48.628;9.002;2024-02-28T05:43:52;26.20;;;6.40;;
75520;SDS011;64102;48.628;9.002;2024-02-28T05:46:18;23.20;;;5.70;;
75520;SDS011;64102;48.628;9.002;2024-02-28T05:48:44;25.60;;;6.53;;
75520;SDS011;64102;48.628;9.002;2024-02-28T05:51:13;21.05;;;5.10;;
75520;SDS011;64102;48.628;9.002;2024-02-28T05:53:39;22.00;;;6.35;;
75520;SDS011;64102;48.628;9.002;2024-02-28T05:56:05;22.73;;;5.88;;
75520;SDS011;64102;48.628;9.002;2024-02-28T05:58:38;22.17;;;5.50;;
75520;SDS011;64102;48.628;9.002;2024-02-28T06:01:03;22.35;;;6.15;;
75520;SDS011;64102;48.628;9.002;2024-02-28T06:03:29;22.47;;;5.87;;
75520;SDS011;64102;48.628;9.002;2024-02-28T06:05:54;19.97;;;5.80;;
75520;SDS011;64102;48.628;9.002;2024-02-28T06:08:22;23.48;;;5.65;;
75520;SDS011;64102;48.628;9.002;2024-02-28T06:10:47;20.07;;;4.93;;
75520;SDS011;64102;48.628;9.002;2024-02-28T06:13:13;20.47;;;5.43;;
75520;SDS011;64102;48.628;9.002;2024-02-28T06:15:38;20.30;;;5.45;;
75520;SDS011;64102;48.628;9.002;2024-02-28T06:18:04;18.27;;;5.17;;
75520;SDS011;64102;48.628;9.002;2024-02-28T06:20:29;17.33;;;4.68;;
75520;SDS011;64102;48.628;9.002;2024-02-28T06:22:55;22.70;;;6.20;;
75520;SDS011;64102;48.628;9.002;2024-02-28T06:25:20;22.52;;;5.68;;
75520;SDS011;64102;48.628;9.002;2024-02-28T06:27:47;19.83;;;5.50;;
75520;SDS011;64102;48.628;9.002;2024-02-28T06:30:13;22.15;;;5.70;;
75520;SDS011;64102;48.628;9.002;2024-02-28T06:32:39;20.42;;;5.40;;
75520;SDS011;64102;48.628;9.002;2024-02-28T06:35:06;19.67;;;5.20;;
75520;SDS011;64102;48.628;9.002;2024-02-28T06:37:34;20.48;;;4.55;;
75520;SDS011;64102;48.628;9.002;2024-02-28T06:40:00;20.83;;;5.03;;
75520;SDS011;64102;48.628;9.002;2024-02-28T06:42:25;20.10;;;4.97;;
75520;SDS011;64102;48.628;9.002;2024-02-28T06:44:51;21.67;;;5.47;;
75520;SDS011;64102;48.628;9.002;2024-02-28T06:47:16;17.47;;;4.80;;
75520;SDS011;64102;48.628;9.002;2024-02-28T06:49:43;18.35;;;5.07;;
75520;SDS011;64102;48.628;9.002;2024-02-28T06:52:08;22.30;;;5.28;;
75520;SDS011;64102;48.628;9.002;2024-02-28T06:54:34;18.98;;;4.50;;
75520;SDS011;64102;48.628;9.002;2024-02-28T06:56:59;15.73;;;3.83;;
75520;SDS011;64102;48.628;9.002;2024-02-28T06:59:25;16.05;;;3.75;;
75520;SDS011;64102;48.628;9.002;2024-02-28T07:01:50;17.33;;;3.70;;
75520;SDS011;64102;48.628;9.002;2024-02-28T07:04:15;13.73;;;2.90;;
75520;SDS011;64102;48.628;9.002;2024-02-28T07:06:41;16.17;;;3.78;;
75520;SDS011;64102;48.628;9.002;2024-02-28T07:09:07;15.57;;;4.00;;
75520;SDS011;64102;48.628;9.002;2024-02-28T07:11:33;18.00;;;3.67;;
75520;SDS011;64102;48.628;9.002;2024-02-28T07:13:59;17.60;;;4.67;;
75520;SDS011;64102;48.628;9.002;2024-02-28T07:16:27;16.80;;;3.53;;
75520;SDS011;64102;48.628;9.002;2024-02-28T07:18:53;16.20;;;4.45;;
75520;SDS011;64102;48.628;9.002;2024-02-28T07:21:18;11.97;;;2.47;;
75520;SDS011;64102;48.628;9.002;2024-02-28T07:23:44;18.70;;;4.13;;
75520;SDS011;64102;48.628;9.002;2024-02-28T07:26:13;15.90;;;2.97;;
75520;SDS011;64102;48.628;9.002;2024-02-28T07:28:40;16.35;;;3.40;;
75520;SDS011;64102;48.628;9.002;2024-02-28T07:31:05;16.10;;;3.30;;
75520;SDS011;64102;48.628;9.002;2024-02-28T07:33:30;14.23;;;2.53;;
75520;SDS011;64102;48.628;9.002;2024-02-28T07:35:56;15.00;;;3.27;;
75520;SDS011;64102;48.628;9.002;2024-02-28T07:38:25;15.10;;;3.35;;
75520;SDS011;64102;48.628;9.002;2024-02-28T07:40:52;18.05;;;4.43;;
75520;SDS011;64102;48.628;9.002;2024-02-28T07:43:18;15.93;;;4.20;;
75520;SDS011;64102;48.628;9.002;2024-02-28T07:45:43;14.53;;;3.10;;
75520;SDS011;64102;48.628;9.002;2024-02-28T07:48:08;13.77;;;3.40;;
75520;SDS011;64102;48.628;9.002;2024-02-28T07:50:34;15.30;;;3.92;;
75520;SDS011;64102;48.628;9.002;2024-02-28T07:52:59;16.67;;;3.53;;
75520;SDS011;64102;48.628;9.002;2024-02-28T07:55:24;15.40;;;3.40;;
75520;SDS011;64102;48.628;9.002;2024-02-28T07:57:51;15.03;;;3.90;;
75520;SDS011;64102;48.628;9.002;2024-02-28T08:00:19;16.10;;;4.20;;
75520;SDS011;64102;48.628;9.002;2024-02-28T08:02:45;15.27;;;3.25;;
75520;SDS011;64102;48.628;9.002;2024-02-28T08:05:11;14.90;;;3.53;;
75520;SDS011;64102;48.628;9.002;2024-02-28T08:07:37;16.08;;;3.85;;
75520;SDS011;64102;48.628;9.002;2024-02-28T08:10:03;14.80;;;3.33;;
75520;SDS011;64102;48.628;9.002;2024-02-28T08:12:30;14.55;;;3.20;;
75520;SDS011;64102;48.628;9.002;2024-02-28T08:14:56;17.23;;;3.63;;
75520;SDS011;64102;48.628;9.002;2024-02-28T08:18:32;15.43;;;3.17;;
75520;SDS011;64102;48.628;9.002;2024-02-28T08:20:59;14.32;;;2.72;;
75520;SDS011;64102;48.628;9.002;2024-02-28T08:23:26;14.68;;;3.33;;
75520;SDS011;64102;48.628;9.002;2024-02-28T08:25:52;12.90;;;2.78;;
75520;SDS011;64102;48.628;9.002;2024-02-28T08:28:17;14.48;;;3.17;;
75520;SDS011;64102;48.628;9.002;2024-02-28T08:30:43;14.47;;;2.87;;
75520;SDS011;64102;48.628;9.002;2024-02-28T08:33:08;14.45;;;3.47;;
75520;SDS011;64102;48.628;9.002;2024-02-28T08:35:35;13.23;;;2.70;;
75520;SDS011;64102;48.628;9.002;2024-02-28T08:38:01;14.07;;;3.67;;
75520;SDS011;64102;48.628;9.002;2024-02-28T08:40:28;15.23;;;3.28;;
75520;SDS011;64102;48.628;9.002;2024-02-28T08:42:53;12.77;;;2.92;;
75520;SDS011;64102;48.628;9.002;2024-02-28T08:45:19;16.85;;;3.50;;
75520;SDS011;64102;48.628;9.002;2024-02-28T08:47:44;14.57;;;3.37;;
75520;SDS011;64102;48.628;9.002;2024-02-28T08:50:10;14.10;;;2.95;;
75520;SDS011;64102;48.628;9.002;2024-02-28T08:52:35;13.98;;;2.95;;
75520;SDS011;64102;48.628;9.002;2024-02-28T08:55:01;14.02;;;3.97;;
75520;SDS011;64102;48.628;9.002;2024-02-28T08:57:26;16.58;;;3.72;;
75520;SDS011;64102;48.628;9.002;2024-02-28T08:59:52;14.50;;;3.25;;
75520;SDS011;64102;48.628;9.002;2024-02-28T09:02:18;15.27;;;3.42;;
75520;SDS011;64102;48.628;9.002;2024-02-28T09:04:43;14.63;;;3.63;;
75520;SDS011;64102;48.628;9.002;2024-02-28T09:07:08;13.73;;;3.03;;
75520;SDS011;64102;48.628;9.002;2024-02-28T09:09:34;16.10;;;3.43;;
75520;SDS011;64102;48.628;9.002;2024-02-28T09:12:03;15.18;;;4.00;;
75520;SDS011;64102;48.628;9.002;2024-02-28T09:14:28;15.85;;;3.55;;
75520;SDS011;64102;48.628;9.002;2024-02-28T09:16:53;14.13;;;3.17;;
75520;SDS011;64102;48.628;9.002;2024-02-28T09:19:25;18.10;;;3.78;;
75520;SDS011;64102;48.628;9.002;2024-02-28T09:21:51;14.87;;;2.93;;
75520;SDS011;64102;48.628;9.002;2024-02-28T09:24:16;14.93;;;3.10;;
75520;SDS011;64102;48.628;9.002;2024-02-28T09:26:41;16.47;;;3.40;;
75520;SDS011;64102;48.628;9.002;2024-02-28T09:29:06;13.60;;;3.27;;
75520;SDS011;64102;48.628;9.002;2024-02-28T09:31:32;14.50;;;3.30;;
75520;SDS011;64102;48.628;9.002;2024-02-28T09:33:57;13.13;;;3.00;;
75520;SDS011;64102;48.628;9.002;2024-02-28T09:36:23;17.27;;;3.40;;
75520;SDS011;64102;48.628;9.002;2024-02-28T09:38:49;15.25;;;2.75;;
75520;SDS011;64102;48.628;9.002;2024-02-28T09:41:14;16.80;;;3.40;;
75520;SDS011;64102;48.628;9.002;2024-02-28T09:43:41;14.18;;;3.05;;
75520;SDS011;64102;48.628;9.002;2024-02-28T09:46:07;14.13;;;3.45;;
75520;SDS011;64102;48.628;9.002;2024-02-28T09:48:38;12.70;;;3.08;;
75520;SDS011;64102;48.628;9.002;2024-02-28T09:51:05;16.55;;;3.20;;
75520;SDS011;64102;48.628;9.002;2024-02-28T09:53:31;12.20;;;2.45;;
75520;SDS011;64102;48.628;9.002;2024-02-28T09:55:56;13.57;;;2.67;;
75520;SDS011;64102;48.628;9.002;2024-02-28T09:58:21;13.27;;;3.17;;
75520;SDS011;64102;48.628;9.002;2024-02-28T10:00:48;15.05;;;2.72;;
75520;SDS011;64102;48.628;9.002;2024-02-28T10:03:17;14.48;;;3.10;;
75520;SDS011;64102;48.628;9.002;2024-02-28T10:05:47;12.65;;;2.80;;
75520;SDS011;64102;48.628;9.002;2024-02-28T10:08:13;13.40;;;3.30;;
75520;SDS011;64102;48.628;9.002;2024-02-28T10:10:44;13.43;;;3.10;;
75520;SDS011;64102;48.628;9.002;2024-02-28T10:13:11;13.45;;;2.50;;
75520;SDS011;64102;48.628;9.002;2024-02-28T10:15:36;11.20;;;1.90;;
75520;SDS011;64102;48.628;9.002;2024-02-28T10:18:02;13.10;;;2.80;;
75520;SDS011;64102;48.628;9.002;2024-02-28T10:20:30;14.20;;;3.10;;
75520;SDS011;64102;48.628;9.002;2024-02-28T10:22:55;13.73;;;2.60;;
75520;SDS011;64102;48.628;9.002;2024-02-28T10:25:21;12.20;;;2.60;;
75520;SDS011;64102;48.628;9.002;2024-02-28T10:27:46;12.05;;;2.75;;
75520;SDS011;64102;48.628;9.002;2024-02-28T10:30:12;13.07;;;2.53;;
75520;SDS011;64102;48.628;9.002;2024-02-28T10:32:47;10.50;;;2.17;;
75520;SDS011;64102;48.628;9.002;2024-02-28T10:35:13;11.98;;;2.33;;
75520;SDS011;64102;48.628;9.002;2024-02-28T10:37:42;14.60;;;3.33;;
75520;SDS011;64102;48.628;9.002;2024-02-28T10:40:09;12.18;;;2.63;;
75520;SDS011;64102;48.628;9.002;2024-02-28T10:42:35;13.00;;;2.40;;
75520;SDS011;64102;48.628;9.002;2024-02-28T10:45:02;13.18;;;2.45;;
75520;SDS011;64102;48.628;9.002;2024-02-28T10:47:28;15.32;;;3.40;;
75520;SDS011;64102;48.628;9.002;2024-02-28T10:49:53;12.90;;;3.10;;
75520;SDS011;64102;48.628;9.002;2024-02-28T10:52:19;15.43;;;3.28;;
75520;SDS011;64102;48.628;9.002;2024-02-28T10:54:47;12.90;;;2.90;;
75520;SDS011;64102;48.628;9.002;2024-02-28T10:57:19;12.48;;;2.30;;
75520;SDS011;64102;48.628;9.002;2024-02-28T10:59:46;13.13;;;3.03;;
75520;SDS011;64102;48.628;9.002;2024-02-28T11:02:12;13.57;;;2.88;;
75520;SDS011;64102;48.628;9.002;2024-02-28T11:04:39;13.30;;;3.38;;
75520;SDS011;64102;48.628;9.002;2024-02-28T11:07:05;12.60;;;2.70;;
75520;SDS011;64102;48.628;9.002;2024-02-28T11:09:31;14.02;;;2.78;;
75520;SDS011;64102;48.628;9.002;2024-02-28T11:11:57;12.52;;;2.72;;
75520;SDS011;64102;48.628;9.002;2024-02-28T11:14:22;14.70;;;2.85;;
75520;SDS011;64102;48.628;9.002;2024-02-28T11:17:03;12.63;;;2.85;;
75520;SDS011;64102;48.628;9.002;2024-02-28T11:19:31;13.38;;;2.35;;
75520;SDS011;64102;48.628;9.002;2024-02-28T11:21:58;13.93;;;3.22;;
75520;SDS011;64102;48.628;9.002;2024-02-28T11:24:24;13.23;;;3.05;;
75520;SDS011;64102;48.628;9.002;2024-02-28T11:26:54;14.00;;;2.85;;
75520;SDS011;64102;48.628;9.002;2024-02-28T11:29:26;12.67;;;2.80;;
75520;SDS011;64102;48.628;9.002;2024-02-28T11:31:53;11.95;;;3.05;;
75520;SDS011;64102;48.628;9.002;2024-02-28T11:34:19;12.48;;;2.97;;
75520;SDS011;64102;48.628;9.002;2024-02-28T11:36:48;12.90;;;2.30;;
75520;SDS011;64102;48.628;9.002;2024-02-28T11:39:14;12.88;;;2.45;;
75520;SDS011;64102;48.628;9.002;2024-02-28T11:41:41;11.50;;;2.45;;
75520;SDS011;64102;48.628;9.002;2024-02-28T11:44:06;12.35;;;3.00;;
75520;SDS011;64102;48.628;9.002;2024-02-28T11:46:32;13.15;;;2.50;;
75520;SDS011;64102;48.628;9.002;2024-02-28T11:48:58;16.15;;;3.38;;
75520;SDS011;64102;48.628;9.002;2024-02-28T11:51:23;13.00;;;2.65;;
75520;SDS011;64102;48.628;9.002;2024-02-28T11:53:49;13.82;;;2.60;;
75520;SDS011;64102;48.628;9.002;2024-02-28T11:56:14;10.40;;;2.03;;
75520;SDS011;64102;48.628;9.002;2024-02-28T11:58:52;12.77;;;2.03;;
75520;SDS011;64102;48.628;9.002;2024-02-28T12:01:18;13.05;;;2.30;;
75520;SDS011;64102;48.628;9.002;2024-02-28T12:03:45;12.93;;;2.72;;
75520;SDS011;64102;48.628;9.002;2024-02-28T12:06:13;12.68;;;2.83;;
75520;SDS011;64102;48.628;9.002;2024-02-28T12:08:39;12.65;;;2.80;;
75520;SDS011;64102;48.628;9.002;2024-02-28T12:11:08;13.63;;;2.72;;
75520;SDS011;64102;48.628;9.002;2024-02-28T12:13:35;12.93;;;2.88;;
75520;SDS011;64102;48.628;9.002;2024-02-28T12:16:02;12.93;;;2.80;;
75520;SDS011;64102;48.628;9.002;2024-02-28T12:18:28;13.52;;;2.78;;
75520;SDS011;64102;48.628;9.002;2024-02-28T12:20:54;13.30;;;2.85;;
75520;SDS011;64102;48.628;9.002;2024-02-28T12:23:19;13.03;;;2.80;;
75520;SDS011;64102;48.628;9.002;2024-02-28T12:25:45;12.77;;;3.33;;
75520;SDS011;64102;48.628;9.002;2024-02-28T12:28:10;12.88;;;3.13;;
75520;SDS011;64102;48.628;9.002;2024-02-28T12:30:39;12.52;;;3.38;;
75520;SDS011;64102;48.628;9.002;2024-02-28T12:33:06;13.52;;;3.53;;
75520;SDS011;64102;48.628;9.002;2024-02-28T12:35:31;14.17;;;3.23;;
75520;SDS011;64102;48.628;9.002;2024-02-28T12:37:56;14.00;;;3.13;;
75520;SDS011;64102;48.628;9.002;2024-02-28T12:40:22;12.98;;;3.00;;
75520;SDS011;64102;48.628;9.002;2024-02-28T12:42:48;14.53;;;3.30;;
75520;SDS011;64102;48.628;9.002;2024-02-28T12:45:13;15.82;;;3.35;;
75520;SDS011;64102;48.628;9.002;2024-02-28T12:47:39;13.40;;;3.40;;
75520;SDS011;64102;48.628;9.002;2024-02-28T12:50:04;14.27;;;3.55;;
75520;SDS011;64102;48.628;9.002;2024-02-28T12:52:32;15.50;;;2.95;;
75520;SDS011;64102;48.628;9.002;2024-02-28T12:54:57;14.30;;;3.65;;
75520;SDS011;64102;48.628;9.002;2024-02-28T12:57:22;13.10;;;3.50;;
75520;SDS011;64102;48.628;9.002;2024-02-28T12:59:48;15.60;;;4.13;;
75520;SDS011;64102;48.628;9.002;2024-02-28T13:02:13;15.97;;;3.33;;
75520;SDS011;64102;48.628;9.002;2024-02-28T13:04:40;13.68;;;3.20;;
75520;SDS011;64102;48.628;9.002;2024-02-28T13:07:06;15.27;;;3.50;;
75520;SDS011;64102;48.628;9.002;2024-02-28T13:09:31;14.77;;;3.53;;
75520;SDS011;64102;48.628;9.002;2024-02-28T13:11:56;16.23;;;3.67;;
75520;SDS011;64102;48.628;9.002;2024-02-28T13:14:22;17.53;;;3.90;;
75520;SDS011;64102;48.628;9.002;2024-02-28T13:16:47;15.30;;;4.03;;
75520;SDS011;64102;48.628;9.002;2024-02-28T13:19:13;15.23;;;3.75;;
75520;SDS011;64102;48.628;9.002;2024-02-28T13:21:39;14.60;;;3.80;;
75520;SDS011;64102;48.628;9.002;2024-02-28T13:24:04;16.02;;;3.53;;
75520;SDS011;64102;48.628;9.002;2024-02-28T13:26:30;16.10;;;3.65;;
75520;SDS011;64102;48.628;9.002;2024-02-28T13:28:55;15.43;;;3.43;;
75520;SDS011;64102;48.628;9.002;2024-02-28T13:31:21;13.10;;;3.33;;
75520;SDS011;64102;48.628;9.002;2024-02-28T13:33:46;15.40;;;3.47;;
75520;SDS011;64102;48.628;9.002;2024-02-28T13:36:13;15.73;;;4.28;;
75520;SDS011;64102;48.628;9.002;2024-02-28T13:38:38;18.13;;;3.65;;
75520;SDS011;64102;48.628;9.002;2024-02-28T13:41:04;16.35;;;3.47;;
75520;SDS011;64102;48.628;9.002;2024-02-28T13:43:29;15.20;;;3.33;;
75520;SDS011;64102;48.628;9.002;2024-02-28T13:45:55;14.03;;;3.00;;
75520;SDS011;64102;48.628;9.002;2024-02-28T13:48:25;17.02;;;3.83;;
75520;SDS011;64102;48.628;9.002;2024-02-28T13:50:52;17.20;;;4.13;;
75520;SDS011;64102;48.628;9.002;2024-02-28T13:53:17;14.52;;;2.90;;
75520;SDS011;64102;48.628;9.002;2024-02-28T13:55:43;14.35;;;3.65;;
75520;SDS011;64102;48.628;9.002;2024-02-28T13:58:10;16.40;;;4.25;;
75520;SDS011;64102;48.628;9.002;2024-02-28T14:00:36;14.65;;;3.78;;
75520;SDS011;64102;48.628;9.002;2024-02-28T14:03:03;18.30;;;4.35;;
75520;SDS011;64102;48.628;9.002;2024-02-28T14:05:29;15.25;;;3.65;;
75520;SDS011;64102;48.628;9.002;2024-02-28T14:07:55;16.70;;;4.15;;
75520;SDS011;64102;48.628;9.002;2024-02-28T14:10:22;16.05;;;3.80;;
75520;SDS011;64102;48.628;9.002;2024-02-28T14:12:48;17.10;;;3.85;;
75520;SDS011;64102;48.628;9.002;2024-02-28T14:15:14;16.63;;;3.72;;
75520;SDS011;64102;48.628;9.002;2024-02-28T14:17:39;19.23;;;4.13;;
75520;SDS011;64102;48.628;9.002;2024-02-28T14:20:05;16.73;;;3.97;;
75520;SDS011;64102;48.628;9.002;2024-02-28T14:22:31;20.10;;;5.10;;
75520;SDS011;64102;48.628;9.002;2024-02-28T14:24:57;15.40;;;4.20;;
75520;SDS011;64102;48.628;9.002;2024-02-28T14:27:24;17.35;;;4.43;;